createdAt,value
2018-09-26T00:01:52.309Z,82.80
2018-09-26T00:04:26.918Z,82.20
2018-09-26T00:06:55.923Z,82.40
2018-09-26T00:09:24.346Z,82.20
2018-09-26T00:11:52.867Z,82.70
2018-09-26T00:14:21.360Z,82.90
2018-09-26T00:16:49.796Z,83.40
2018-09-26T00:19:18.210Z,83.50
2018-09-26T00:21:46.688Z,82.80
2018-09-26T00:24:16.202Z,82.30
2018-09-26T00:26:44.652Z,82.50
2018-09-26T00:29:13.105Z,82.50
2018-09-26T00:31:41.610Z,82.70
2018-09-26T00:34:10.025Z,82.70
2018-09-26T00:36:38.471Z,82.70
2018-09-26T00:39:07.301Z,82.60
2018-09-26T00:41:35.718Z,82.80
2018-09-26T00:44:04.197Z,83.10
2018-09-26T00:46:35.057Z,83.70
2018-09-26T00:49:03.563Z,83.60
2018-09-26T00:51:32.065Z,82.90
2018-09-26T00:54:00.600Z,83.70
2018-09-26T00:56:29.053Z,83.40
2018-09-26T00:58:57.693Z,83.70
2018-09-26T01:01:26.210Z,83.70
2018-09-26T01:03:54.832Z,83.20
2018-09-26T01:06:23.397Z,83.60
2018-09-26T01:08:51.878Z,83.50
2018-09-26T01:11:20.385Z,83.10
2018-09-26T01:13:48.856Z,83.20
2018-09-26T01:16:17.384Z,83.70
2018-09-26T01:18:45.861Z,83.80
2018-09-26T01:21:14.322Z,83.50
2018-09-26T01:23:42.777Z,83.10
2018-09-26T01:26:11.267Z,83.30
2018-09-26T01:28:39.712Z,83.70
2018-09-26T01:31:08.157Z,83.70
2018-09-26T01:33:36.604Z,84.00
2018-09-26T01:36:05.018Z,84.30
2018-09-26T01:38:33.475Z,84.30
2018-09-26T01:41:01.913Z,84.70
2018-09-26T01:43:30.409Z,84.80
2018-09-26T01:45:58.918Z,84.30
2018-09-26T01:48:27.579Z,84.30
2018-09-26T01:50:56.296Z,84.30
2018-09-26T01:53:24.871Z,84.30
2018-09-26T01:55:53.325Z,84.30
2018-09-26T01:58:21.778Z,84.30
2018-09-26T02:00:50.209Z,84.00
2018-09-26T02:03:18.629Z,84.30
2018-09-26T02:05:47.098Z,84.20
2018-09-26T02:08:15.562Z,84.30
2018-09-26T02:10:43.992Z,84.20
2018-09-26T02:13:12.492Z,84.20
2018-09-26T02:15:40.888Z,84.10
2018-09-26T02:18:09.319Z,84.20
2018-09-26T02:20:37.812Z,84.10
2018-09-26T02:23:06.293Z,84.10
2018-09-26T02:25:34.663Z,84.20
2018-09-26T02:28:03.108Z,84.30
2018-09-26T02:30:31.636Z,84.50
2018-09-26T02:33:00.170Z,84.60
2018-09-26T02:35:28.624Z,84.10
2018-09-26T02:37:57.203Z,84.10
2018-09-26T02:40:25.867Z,85.00
2018-09-26T02:42:54.387Z,85.10
2018-09-26T02:45:22.837Z,85.00
2018-09-26T02:47:51.378Z,85.00
2018-09-26T02:50:19.850Z,85.00
2018-09-26T02:52:48.319Z,84.10
2018-09-26T02:55:16.853Z,84.00
2018-09-26T02:57:45.274Z,85.00
2018-09-26T03:00:13.730Z,85.30
2018-09-26T03:02:42.236Z,85.50
2018-09-26T03:05:10.678Z,85.50
2018-09-26T03:07:39.091Z,84.00
2018-09-26T03:10:08.049Z,83.90
2018-09-26T03:12:36.471Z,84.50
2018-09-26T03:15:04.985Z,84.60
2018-09-26T03:17:33.461Z,85.00
2018-09-26T03:20:01.940Z,84.30
2018-09-26T03:22:30.367Z,83.90
2018-09-26T03:24:58.904Z,83.90
2018-09-26T03:27:27.807Z,83.90
2018-09-26T03:29:56.355Z,84.00
2018-09-26T03:32:24.909Z,83.80
2018-09-26T03:34:53.442Z,84.20
2018-09-26T03:37:21.905Z,84.70
2018-09-26T03:39:50.382Z,84.40
2018-09-26T03:42:18.822Z,84.80
2018-09-26T03:44:47.200Z,85.50
2018-09-26T03:47:15.705Z,84.60
2018-09-26T03:49:44.181Z,84.60
2018-09-26T03:52:12.729Z,83.80
2018-09-26T03:54:41.225Z,83.90
2018-09-26T03:57:09.708Z,84.10
2018-09-26T03:59:38.189Z,84.50
2018-09-26T04:02:06.708Z,84.10
2018-09-26T04:04:35.118Z,85.00
2018-09-26T04:07:03.545Z,85.20
2018-09-26T04:09:32.120Z,83.80
2018-09-26T04:12:00.827Z,84.40
2018-09-26T04:14:29.852Z,85.10
2018-09-26T04:16:58.513Z,85.80
2018-09-26T04:19:28.027Z,85.00
2018-09-26T04:21:57.111Z,84.60
2018-09-26T04:24:25.675Z,84.70
2018-09-26T04:26:55.007Z,85.20
2018-09-26T04:29:23.531Z,85.00
2018-09-26T04:31:51.968Z,85.60
2018-09-26T04:34:20.430Z,86.00
2018-09-26T04:36:48.924Z,85.50
2018-09-26T04:39:17.348Z,85.10
2018-09-26T04:41:45.816Z,85.50
2018-09-26T04:44:14.268Z,85.80
2018-09-26T04:46:42.694Z,85.00
2018-09-26T04:49:11.303Z,84.00
2018-09-26T04:51:39.726Z,84.90
2018-09-26T04:54:08.249Z,85.50
2018-09-26T04:56:36.696Z,85.20
2018-09-26T04:59:05.156Z,85.30
2018-09-26T05:01:33.636Z,85.70
2018-09-26T05:04:02.096Z,85.80
2018-09-26T05:06:30.589Z,85.80
2018-09-26T05:08:59.086Z,85.70
2018-09-26T05:11:27.606Z,85.60
2018-09-26T05:13:56.251Z,85.40
2018-09-26T05:16:24.825Z,84.80
2018-09-26T05:18:53.461Z,85.60
2018-09-26T05:21:21.906Z,85.50
2018-09-26T05:23:50.339Z,85.80
2018-09-26T05:26:18.896Z,85.30
2018-09-26T05:28:47.455Z,84.60
2018-09-26T05:31:15.992Z,84.50
2018-09-26T05:33:44.472Z,85.40
2018-09-26T05:36:12.992Z,84.80
2018-09-26T05:38:41.472Z,84.20
2018-09-26T05:41:09.940Z,84.50
2018-09-26T05:43:38.440Z,84.20
2018-09-26T05:46:07.473Z,84.30
2018-09-26T05:48:36.289Z,83.80
2018-09-26T05:51:04.796Z,84.20
2018-09-26T05:53:34.045Z,84.20
2018-09-26T05:56:02.526Z,84.00
2018-09-26T05:58:30.994Z,83.90
2018-09-26T06:00:59.613Z,84.00
2018-09-26T06:03:28.077Z,84.00
2018-09-26T06:05:56.660Z,84.10
2018-09-26T06:08:25.165Z,83.40
2018-09-26T06:10:53.675Z,83.20
2018-09-26T06:13:22.069Z,82.80
2018-09-26T06:15:50.589Z,82.90
2018-09-26T06:18:19.012Z,83.00
2018-09-26T06:20:47.548Z,81.70
2018-09-26T06:23:16.007Z,81.30
2018-09-26T06:25:44.512Z,81.00
2018-09-26T06:28:13.006Z,81.70
2018-09-26T06:30:41.466Z,81.60
2018-09-26T06:33:10.061Z,81.70
2018-09-26T06:35:38.632Z,82.20
2018-09-26T06:38:07.045Z,81.90
2018-09-26T06:40:35.691Z,81.40
2018-09-26T06:43:04.102Z,80.90
2018-09-26T06:45:32.553Z,80.80
2018-09-26T06:48:01.035Z,80.60
2018-09-26T06:50:29.574Z,81.40
2018-09-26T06:52:58.021Z,81.60
2018-09-26T06:55:26.541Z,81.70
2018-09-26T06:57:55.301Z,81.40
2018-09-26T07:00:24.755Z,81.80
2018-09-26T07:02:53.840Z,82.30
2018-09-26T07:05:22.364Z,81.60
2018-09-26T07:07:50.935Z,81.10
2018-09-26T07:10:19.463Z,80.40
2018-09-26T07:12:47.886Z,81.00
2018-09-26T07:15:16.334Z,81.50
2018-09-26T07:17:44.750Z,81.30
2018-09-26T07:20:13.196Z,79.70
2018-09-26T07:22:41.756Z,77.90
2018-09-26T07:25:10.257Z,77.10
2018-09-26T07:27:38.732Z,77.20
2018-09-26T07:30:07.468Z,74.90
2018-09-26T07:32:35.893Z,71.40
2018-09-26T07:35:04.419Z,70.50
2018-09-26T07:37:33.319Z,68.70
2018-09-26T07:40:01.805Z,67.30
2018-09-26T07:42:30.260Z,63.40
2018-09-26T07:45:00.171Z,62.00
2018-09-26T07:47:28.742Z,59.50
2018-09-26T07:49:57.595Z,59.30
2018-09-26T07:52:26.187Z,58.10
2018-09-26T07:54:54.760Z,59.70
2018-09-26T07:57:23.342Z,59.90
2018-09-26T07:59:51.822Z,58.70
2018-09-26T08:02:20.362Z,59.30
2018-09-26T08:04:48.940Z,59.60
2018-09-26T08:07:17.455Z,60.30
2018-09-26T08:09:45.937Z,57.80
2018-09-26T08:12:14.440Z,56.50
2018-09-26T08:14:42.993Z,55.00
2018-09-26T08:17:11.504Z,54.30
2018-09-26T08:19:40.249Z,54.60
2018-09-26T08:22:08.756Z,54.30
2018-09-26T08:24:37.200Z,54.40
2018-09-26T08:27:05.726Z,54.50
2018-09-26T08:29:34.233Z,53.80
2018-09-26T08:32:02.767Z,53.60
2018-09-26T08:34:31.352Z,52.90
2018-09-26T08:36:59.796Z,53.00
2018-09-26T08:39:31.464Z,53.20
2018-09-26T08:42:00.019Z,53.40
2018-09-26T08:44:28.708Z,53.10
2018-09-26T08:46:57.254Z,52.30
2018-09-26T08:49:26.051Z,52.60
2018-09-26T08:51:54.617Z,51.20
2018-09-26T08:54:23.072Z,51.60
2018-09-26T08:56:51.650Z,51.70
2018-09-26T08:59:20.223Z,51.30
2018-09-26T09:01:49.158Z,52.00
2018-09-26T09:04:18.577Z,52.80
2018-09-26T09:06:47.398Z,51.20
2018-09-26T09:09:15.946Z,50.30
2018-09-26T09:11:44.523Z,48.50
2018-09-26T09:14:12.966Z,48.80
2018-09-26T09:16:41.409Z,49.10
2018-09-26T09:19:09.858Z,50.20
2018-09-26T09:21:38.343Z,48.90
2018-09-26T09:24:06.848Z,49.00
2018-09-26T09:26:40.577Z,49.10
2018-09-26T09:29:09.073Z,47.10
2018-09-26T09:31:37.500Z,46.20
2018-09-26T09:34:06.074Z,47.00
2018-09-26T09:36:34.549Z,46.70
2018-09-26T09:39:03.089Z,45.80
2018-09-26T09:41:31.555Z,45.80
2018-09-26T09:44:00.055Z,42.50
2018-09-26T09:46:28.615Z,41.10
2018-09-26T09:48:57.213Z,42.10
2018-09-26T09:51:25.821Z,42.20
2018-09-26T09:53:54.356Z,42.90
2018-09-26T09:56:22.979Z,42.70
2018-09-26T09:58:51.372Z,42.40
2018-09-26T10:01:25.097Z,41.30
2018-09-26T10:03:53.574Z,41.30
2018-09-26T10:06:22.097Z,41.40
2018-09-26T10:08:50.706Z,40.30
2018-09-26T10:11:19.144Z,39.00
2018-09-26T10:13:47.562Z,39.00
2018-09-26T10:16:16.039Z,37.80
2018-09-26T10:18:45.008Z,38.00
2018-09-26T10:21:13.823Z,38.20
2018-09-26T10:23:42.248Z,37.60
2018-09-26T10:26:11.148Z,37.60
2018-09-26T10:28:39.953Z,37.90
2018-09-26T10:31:08.548Z,36.60
2018-09-26T10:33:36.982Z,37.40
2018-09-26T10:36:05.510Z,37.60
2018-09-26T10:38:33.926Z,37.10
2018-09-26T10:41:02.451Z,37.00
2018-09-26T10:43:33.318Z,36.30
2018-09-26T10:46:02.041Z,34.80
2018-09-26T10:48:30.569Z,34.80
2018-09-26T10:50:59.078Z,35.00
2018-09-26T10:53:27.526Z,34.70
2018-09-26T10:55:56.094Z,34.90
2018-09-26T10:58:25.076Z,34.30
2018-09-26T11:00:53.550Z,33.90
2018-09-26T11:03:22.001Z,35.00
2018-09-26T11:05:50.464Z,34.90
2018-09-26T11:08:18.960Z,35.60
2018-09-26T11:10:47.466Z,35.30
2018-09-26T11:13:15.944Z,34.60
2018-09-26T11:15:44.647Z,34.50
2018-09-26T11:18:13.185Z,34.60
2018-09-26T11:20:41.614Z,34.40
2018-09-26T11:23:10.049Z,34.60
2018-09-26T11:25:38.998Z,34.90
2018-09-26T11:28:07.464Z,33.90
2018-09-26T11:30:35.986Z,33.90
2018-09-26T11:33:04.724Z,33.90
2018-09-26T11:35:33.333Z,34.10
2018-09-26T11:38:01.828Z,34.00
2018-09-26T11:40:31.032Z,34.00
2018-09-26T11:42:59.517Z,34.00
2018-09-26T11:45:28.097Z,34.00
2018-09-26T11:47:56.689Z,34.00
2018-09-26T11:50:25.514Z,34.50
2018-09-26T11:52:53.985Z,34.70
2018-09-26T11:55:22.500Z,34.80
2018-09-26T11:57:50.917Z,34.30
2018-09-26T12:00:19.420Z,34.60
2018-09-26T12:02:48.374Z,34.80
2018-09-26T12:05:16.881Z,34.30
2018-09-26T12:07:45.321Z,34.20
2018-09-26T12:10:14.334Z,34.20
2018-09-26T12:12:43.258Z,34.80
2018-09-26T12:15:12.204Z,34.30
2018-09-26T12:17:40.742Z,33.60
2018-09-26T12:20:09.260Z,33.30
2018-09-26T12:22:37.946Z,32.50
2018-09-26T12:25:06.418Z,32.60
2018-09-26T12:27:34.868Z,32.60
2018-09-26T12:30:03.423Z,31.90
2018-09-26T12:32:31.849Z,31.10
2018-09-26T12:35:00.364Z,30.60
2018-09-26T12:37:28.893Z,31.10
2018-09-26T12:39:57.355Z,32.20
2018-09-26T12:42:25.959Z,31.90
2018-09-26T12:44:54.360Z,32.60
2018-09-26T12:47:23.516Z,32.50
2018-09-26T12:49:51.993Z,33.00
2018-09-26T12:52:20.526Z,32.50
2018-09-26T12:54:48.997Z,31.10
2018-09-26T12:57:17.526Z,30.20
2018-09-26T12:59:46.006Z,30.00
2018-09-26T13:02:14.508Z,29.90
2018-09-26T13:04:42.880Z,29.90
2018-09-26T13:07:11.503Z,29.60
2018-09-26T13:09:39.961Z,29.90
2018-09-26T13:12:08.496Z,30.40
2018-09-26T13:14:37.013Z,31.30
2018-09-26T13:17:05.468Z,31.30
2018-09-26T13:19:33.964Z,31.20
2018-09-26T13:22:02.845Z,31.10
2018-09-26T13:24:31.487Z,30.50
2018-09-26T13:26:59.922Z,30.30
2018-09-26T13:29:31.284Z,31.50
2018-09-26T13:31:59.999Z,32.20
2018-09-26T13:34:29.123Z,32.50
2018-09-26T13:36:58.472Z,32.40
2018-09-26T13:39:27.045Z,32.40
2018-09-26T13:41:55.866Z,32.10
2018-09-26T13:44:24.716Z,32.20
2018-09-26T13:46:53.170Z,32.40
2018-09-26T13:49:21.607Z,32.90
2018-09-26T13:51:50.102Z,33.30
2018-09-26T13:54:18.504Z,33.60
2018-09-26T13:56:46.962Z,33.70
2018-09-26T13:59:15.554Z,33.10
2018-09-26T14:01:44.647Z,32.60
2018-09-26T14:04:13.124Z,32.90
2018-09-26T14:06:41.615Z,33.30
2018-09-26T14:09:10.195Z,32.90
2018-09-26T14:11:38.709Z,33.10
2018-09-26T14:14:07.213Z,34.00
2018-09-26T14:16:36.489Z,33.70
2018-09-26T14:19:05.061Z,33.70
2018-09-26T14:21:35.266Z,32.80
2018-09-26T14:24:04.040Z,32.30
2018-09-26T14:26:32.509Z,32.10
2018-09-26T14:29:01.145Z,31.70
2018-09-26T14:31:30.173Z,30.50
2018-09-26T14:33:59.812Z,30.00
2018-09-26T14:36:29.433Z,30.40
2018-09-26T14:38:58.686Z,31.10
2018-09-26T14:41:27.967Z,30.80
2018-09-26T14:43:56.859Z,30.80
2018-09-26T14:46:25.474Z,30.60
2018-09-26T14:48:53.932Z,30.00
2018-09-26T14:51:22.532Z,29.80
2018-09-26T14:53:51.001Z,29.40
2018-09-26T14:56:19.762Z,29.60
2018-09-26T14:58:48.666Z,29.80
2018-09-26T15:01:17.186Z,29.20
2018-09-26T15:03:46.744Z,29.30
2018-09-26T15:06:15.266Z,29.90
2018-09-26T15:08:43.781Z,30.20
2018-09-26T15:11:12.273Z,30.50
2018-09-26T15:13:40.778Z,30.60
2018-09-26T15:16:09.266Z,31.10
2018-09-26T15:18:40.280Z,31.00
2018-09-26T15:21:08.759Z,29.90
2018-09-26T15:23:37.354Z,29.90
2018-09-26T15:26:05.938Z,30.00
2018-09-26T15:28:34.639Z,30.60
2018-09-26T15:33:47.349Z,32.00
2018-09-26T15:36:15.998Z,32.10
2018-09-26T15:38:44.717Z,31.90
2018-09-26T15:41:13.353Z,32.30
2018-09-26T15:43:41.794Z,32.30
2018-09-26T15:46:10.248Z,32.20
2018-09-26T15:48:39.178Z,33.10
2018-09-26T15:51:07.790Z,34.40
2018-09-26T15:53:36.487Z,34.40
2018-09-26T15:56:05.139Z,33.70
2018-09-26T15:58:33.624Z,33.50
2018-09-26T16:01:02.186Z,33.30
2018-09-26T16:03:31.561Z,33.90
2018-09-26T16:06:00.639Z,34.30
2018-09-26T16:08:29.341Z,34.30
2018-09-26T16:10:58.198Z,34.20
2018-09-26T16:13:27.545Z,34.30
2018-09-26T16:15:56.362Z,34.20
2018-09-26T16:18:25.033Z,34.20
2018-09-26T16:20:53.610Z,34.30
2018-09-26T16:23:22.250Z,34.10
2018-09-26T16:26:42.436Z,34.10
2018-09-26T16:29:55.810Z,34.20
2018-09-26T16:32:26.182Z,34.00
2018-09-26T16:35:06.423Z,34.00
2018-09-26T16:37:36.673Z,33.90
2018-09-26T16:40:06.394Z,34.10
2018-09-26T16:42:34.944Z,34.50
2018-09-26T16:45:03.928Z,35.30
2018-09-26T16:47:32.940Z,35.40
2018-09-26T16:50:01.491Z,35.70
2018-09-26T16:52:30.021Z,36.10
2018-09-26T16:54:58.693Z,36.60
2018-09-26T16:57:27.490Z,37.50
2018-09-26T16:59:56.162Z,38.50
2018-09-26T17:02:24.900Z,40.40
2018-09-26T17:04:53.239Z,42.50
2018-09-26T17:07:21.782Z,43.90
2018-09-26T17:09:50.256Z,45.50
2018-09-26T17:12:18.725Z,47.10
2018-09-26T17:14:47.216Z,49.60
2018-09-26T17:17:15.771Z,51.10
2018-09-26T17:19:44.166Z,52.00
2018-09-26T17:22:12.649Z,53.50
2018-09-26T17:24:41.168Z,55.00
2018-09-26T17:27:09.973Z,54.40
2018-09-26T17:29:38.614Z,55.00
2018-09-26T17:32:07.222Z,55.00
2018-09-26T17:34:35.743Z,56.20
2018-09-26T17:37:04.364Z,57.30
2018-09-26T17:39:32.926Z,57.20
2018-09-26T17:42:01.485Z,56.70
2018-09-26T17:44:30.132Z,56.40
2018-09-26T17:46:59.760Z,57.10
2018-09-26T17:49:28.341Z,56.40
2018-09-26T17:51:57.131Z,56.70
2018-09-26T17:54:25.892Z,57.70
2018-09-26T17:56:54.443Z,57.70
2018-09-26T17:59:22.961Z,57.50
2018-09-26T18:01:51.753Z,57.90
2018-09-26T18:04:20.331Z,59.00
2018-09-26T18:06:48.732Z,60.10
2018-09-26T18:09:17.274Z,60.00
2018-09-26T18:11:45.822Z,59.50
2018-09-26T18:14:14.265Z,58.90
2018-09-26T18:16:42.809Z,59.20
2018-09-26T18:19:11.420Z,58.70
2018-09-26T18:21:40.016Z,58.30
2018-09-26T18:24:08.599Z,58.00
2018-09-26T18:26:37.062Z,58.50
2018-09-26T18:29:05.631Z,59.90
2018-09-26T18:31:34.063Z,59.80
2018-09-26T18:34:02.617Z,59.70
2018-09-26T18:36:31.188Z,59.70
2018-09-26T18:39:00.164Z,59.70
2018-09-26T18:41:28.774Z,59.70
2018-09-26T18:43:57.555Z,59.30
2018-09-26T18:46:26.230Z,59.60
2018-09-26T18:48:54.916Z,59.60
2018-09-26T18:51:23.370Z,59.60
2018-09-26T18:53:51.881Z,59.50
2018-09-26T18:56:21.541Z,59.30
2018-09-26T18:58:50.096Z,58.50
2018-09-26T19:01:18.629Z,59.50
2018-09-26T19:03:47.109Z,59.40
2018-09-26T19:06:15.598Z,59.40
2018-09-26T19:08:44.132Z,61.60
2018-09-26T19:11:13.222Z,62.80
2018-09-26T19:13:41.938Z,63.80
2018-09-26T19:16:10.853Z,64.30
2018-09-26T19:18:39.305Z,64.30
2018-09-26T19:21:07.794Z,64.80
2018-09-26T19:23:36.337Z,65.20
2018-09-26T19:26:04.904Z,65.20
2018-09-26T19:28:33.576Z,65.60
2018-09-26T19:31:02.102Z,65.90
2018-09-26T19:33:31.966Z,65.80
2018-09-26T19:36:00.661Z,65.70
2018-09-26T19:38:29.339Z,66.40
2018-09-26T19:40:57.880Z,67.10
2018-09-26T19:43:26.633Z,67.60
2018-09-26T19:45:55.348Z,67.60
2018-09-26T19:48:24.018Z,66.70
2018-09-26T19:50:52.567Z,67.10
2018-09-26T19:53:21.164Z,67.50
2018-09-26T19:55:49.641Z,67.50
2018-09-26T19:58:18.372Z,67.90
2018-09-26T20:00:46.780Z,68.20
2018-09-26T20:03:15.275Z,68.30
2018-09-26T20:05:43.818Z,68.10
2018-09-26T20:08:12.312Z,67.00
2018-09-26T20:10:40.901Z,67.00
2018-09-26T20:13:09.483Z,68.00
2018-09-26T20:15:38.041Z,68.10
2018-09-26T20:18:06.664Z,68.20
2018-09-26T20:20:35.625Z,68.10
2018-09-26T20:23:04.520Z,68.10
2018-09-26T20:25:33.163Z,67.90
2018-09-26T20:28:01.704Z,67.90
2018-09-26T20:30:30.217Z,68.00
2018-09-26T20:32:58.924Z,68.00
2018-09-26T20:35:27.579Z,67.90
2018-09-26T20:37:56.370Z,69.80
2018-09-26T20:40:25.164Z,70.50
2018-09-26T20:42:53.849Z,71.10
2018-09-26T20:45:22.474Z,71.10
2018-09-26T20:47:55.777Z,70.80
2018-09-26T20:50:24.486Z,70.40
2018-09-26T20:52:53.195Z,70.80
2018-09-26T20:58:00.295Z,71.90
2018-09-26T21:00:32.533Z,71.90
2018-09-26T21:03:01.162Z,72.20
2018-09-26T21:05:30.533Z,71.50
2018-09-26T21:08:00.031Z,72.30
2018-09-26T21:10:29.654Z,71.90
2018-09-26T21:12:59.071Z,72.00
2018-09-26T21:15:28.972Z,72.20
2018-09-26T21:17:58.217Z,72.70
2018-09-26T21:20:31.080Z,72.70
2018-09-26T21:23:00.652Z,73.50
2018-09-26T21:25:29.580Z,73.60
2018-09-26T21:27:58.325Z,73.30
2018-09-26T21:30:27.384Z,73.60
2018-09-26T21:32:56.811Z,73.60
2018-09-26T21:35:25.703Z,73.60
2018-09-26T21:37:54.601Z,73.50
2018-09-26T21:40:23.465Z,73.70
2018-09-26T21:42:51.956Z,74.00
2018-09-26T21:45:20.605Z,73.50
2018-09-26T21:47:49.185Z,73.80
2018-09-26T21:50:17.865Z,74.10
2018-09-26T21:52:46.614Z,73.90
2018-09-26T21:55:15.249Z,75.30
2018-09-26T21:57:43.859Z,74.70
2018-09-26T22:00:12.492Z,76.30
2018-09-26T22:02:41.082Z,74.60
2018-09-26T22:05:09.690Z,74.20
2018-09-26T22:07:38.431Z,74.70
2018-09-26T22:10:07.160Z,74.90
2018-09-26T22:12:35.648Z,74.80
2018-09-26T22:15:04.352Z,75.50
2018-09-26T22:17:33.000Z,76.30
2018-09-26T22:20:02.083Z,76.40
2018-09-26T22:22:30.764Z,76.40
2018-09-26T22:24:59.581Z,76.40
2018-09-26T22:27:28.316Z,76.40
2018-09-26T22:29:56.858Z,76.40
2018-09-26T22:32:25.991Z,76.40
2018-09-26T22:34:54.628Z,76.40
2018-09-26T22:37:23.439Z,76.40
2018-09-26T22:39:52.097Z,76.40
2018-09-26T22:42:20.848Z,76.40
2018-09-26T22:44:49.597Z,76.50
2018-09-26T22:47:18.093Z,76.40
2018-09-26T22:49:46.708Z,76.80
2018-09-26T22:52:15.233Z,76.70
2018-09-26T22:54:43.961Z,77.50
2018-09-26T22:57:12.495Z,78.00
2018-09-26T22:59:40.956Z,78.40
2018-09-26T23:02:09.459Z,78.10
2018-09-26T23:04:38.059Z,78.90
2018-09-26T23:07:06.535Z,79.80
2018-09-26T23:09:34.985Z,79.40
2018-09-26T23:12:03.548Z,79.90
2018-09-26T23:14:32.028Z,79.50
2018-09-26T23:17:00.685Z,78.50
2018-09-26T23:19:29.448Z,79.00
2018-09-26T23:21:58.418Z,80.20
2018-09-26T23:24:27.198Z,80.60
2018-09-26T23:26:55.985Z,80.40
2018-09-26T23:29:24.842Z,80.40
2018-09-26T23:31:53.323Z,80.60
2018-09-26T23:34:21.807Z,80.20
2018-09-26T23:36:50.229Z,80.10
2018-09-26T23:39:18.749Z,81.30
2018-09-26T23:41:47.229Z,81.70
2018-09-26T23:44:15.762Z,82.20
2018-09-26T23:46:44.233Z,81.80
2018-09-26T23:49:12.658Z,81.40
2018-09-26T23:51:41.245Z,82.00
2018-09-26T23:54:09.957Z,82.60
2018-09-26T23:56:38.464Z,82.40
2018-09-26T23:59:07.143Z,83.00
